Terminal Aerodrome Forecast
Issued by NWS

Home | Current Version | Previous Version | Text Only | Print | Product List | Glossary On
Versions: 1 2 3 4 5 6 7 8 9 10 11 12
976
FTUS46 KLOX 131039 AAA
TAFLGB
TAF AMD
KLGB 131039Z 1311/1406 VRB03KT P6SM SCT250
     FM131200 VRB03KT 4SM HZ BKN003
     FM131600 VRB03KT P6SM SCT250
     FM132000 19008KT P6SM SKC
     FM140000 30006KT P6SM SKC
     FM140400 VRB03KT P6SM SKC=

USA.gov is the U.S. government's official web portal to all federal, state and local government web resources and services.